sensor_id;sensor_type;location;lat;lon;timestamp;P1;durP1;ratioP1;P2;durP2;ratioP2
45007;SDS011;30743;52.008;5.644;2022-07-24T00:00:34;9.25;;;3.67;;
45007;SDS011;30743;52.008;5.644;2022-07-24T00:03:00;5.30;;;4.18;;
45007;SDS011;30743;52.008;5.644;2022-07-24T00:05:26;4.95;;;3.40;;
45007;SDS011;30743;52.008;5.644;2022-07-24T00:07:51;5.75;;;4.00;;
45007;SDS011;30743;52.008;5.644;2022-07-24T00:10:17;6.80;;;3.63;;
45007;SDS011;30743;52.008;5.644;2022-07-24T00:12:42;7.32;;;4.13;;
45007;SDS011;30743;52.008;5.644;2022-07-24T00:15:08;6.85;;;4.18;;
45007;SDS011;30743;52.008;5.644;2022-07-24T00:17:33;5.93;;;4.10;;
45007;SDS011;30743;52.008;5.644;2022-07-24T00:19:59;4.95;;;3.95;;
45007;SDS011;30743;52.008;5.644;2022-07-24T00:22:25;6.47;;;4.20;;
45007;SDS011;30743;52.008;5.644;2022-07-24T00:24:50;5.90;;;4.22;;
45007;SDS011;30743;52.008;5.644;2022-07-24T00:27:16;6.82;;;3.78;;
45007;SDS011;30743;52.008;5.644;2022-07-24T00:29:41;6.90;;;4.35;;
45007;SDS011;30743;52.008;5.644;2022-07-24T00:32:07;10.90;;;4.55;;
45007;SDS011;30743;52.008;5.644;2022-07-24T00:34:32;10.07;;;4.75;;
45007;SDS011;30743;52.008;5.644;2022-07-24T00:36:58;7.95;;;4.78;;
45007;SDS011;30743;52.008;5.644;2022-07-24T00:39:23;8.02;;;4.35;;
45007;SDS011;30743;52.008;5.644;2022-07-24T00:41:49;6.68;;;4.18;;
45007;SDS011;30743;52.008;5.644;2022-07-24T00:44:17;9.45;;;4.82;;
45007;SDS011;30743;52.008;5.644;2022-07-24T00:46:43;10.10;;;4.60;;
45007;SDS011;30743;52.008;5.644;2022-07-24T00:49:11;7.50;;;5.05;;
45007;SDS011;30743;52.008;5.644;2022-07-24T00:51:38;7.55;;;4.45;;
45007;SDS011;30743;52.008;5.644;2022-07-24T00:54:06;6.50;;;4.55;;
45007;SDS011;30743;52.008;5.644;2022-07-24T00:56:33;5.88;;;4.50;;
45007;SDS011;30743;52.008;5.644;2022-07-24T00:58:59;9.40;;;4.90;;
45007;SDS011;30743;52.008;5.644;2022-07-24T01:01:25;6.78;;;4.57;;
45007;SDS011;30743;52.008;5.644;2022-07-24T01:03:51;6.88;;;4.03;;
45007;SDS011;30743;52.008;5.644;2022-07-24T01:06:16;7.35;;;4.50;;
45007;SDS011;30743;52.008;5.644;2022-07-24T01:08:42;11.10;;;4.57;;
45007;SDS011;30743;52.008;5.644;2022-07-24T01:11:10;6.23;;;4.53;;
45007;SDS011;30743;52.008;5.644;2022-07-24T01:13:37;7.95;;;4.85;;
45007;SDS011;30743;52.008;5.644;2022-07-24T01:16:03;7.50;;;4.72;;
45007;SDS011;30743;52.008;5.644;2022-07-24T01:18:29;6.35;;;4.57;;
45007;SDS011;30743;52.008;5.644;2022-07-24T01:20:54;9.85;;;4.63;;
45007;SDS011;30743;52.008;5.644;2022-07-24T01:23:20;8.93;;;5.05;;
45007;SDS011;30743;52.008;5.644;2022-07-24T01:25:47;7.57;;;5.20;;
45007;SDS011;30743;52.008;5.644;2022-07-24T01:28:12;7.45;;;4.97;;
45007;SDS011;30743;52.008;5.644;2022-07-24T01:30:38;6.40;;;5.40;;
45007;SDS011;30743;52.008;5.644;2022-07-24T01:33:03;6.78;;;5.15;;
45007;SDS011;30743;52.008;5.644;2022-07-24T01:35:29;6.53;;;5.45;;
45007;SDS011;30743;52.008;5.644;2022-07-24T01:37:54;7.07;;;5.60;;
45007;SDS011;30743;52.008;5.644;2022-07-24T01:40:20;7.65;;;5.72;;
45007;SDS011;30743;52.008;5.644;2022-07-24T01:42:47;10.23;;;5.30;;
45007;SDS011;30743;52.008;5.644;2022-07-24T01:45:13;7.82;;;5.70;;
45007;SDS011;30743;52.008;5.644;2022-07-24T01:47:39;10.40;;;5.00;;
45007;SDS011;30743;52.008;5.644;2022-07-24T01:50:05;6.78;;;5.28;;
45007;SDS011;30743;52.008;5.644;2022-07-24T01:52:31;6.82;;;5.07;;
45007;SDS011;30743;52.008;5.644;2022-07-24T01:54:57;8.82;;;5.07;;
45007;SDS011;30743;52.008;5.644;2022-07-24T01:57:22;7.05;;;5.18;;
45007;SDS011;30743;52.008;5.644;2022-07-24T01:59:48;9.25;;;5.22;;
45007;SDS011;30743;52.008;5.644;2022-07-24T02:02:13;8.32;;;5.15;;
45007;SDS011;30743;52.008;5.644;2022-07-24T02:04:39;9.90;;;5.88;;
45007;SDS011;30743;52.008;5.644;2022-07-24T02:07:04;6.82;;;5.40;;
45007;SDS011;30743;52.008;5.644;2022-07-24T02:09:30;7.53;;;5.18;;
45007;SDS011;30743;52.008;5.644;2022-07-24T02:11:55;7.43;;;5.32;;
45007;SDS011;30743;52.008;5.644;2022-07-24T02:14:21;7.88;;;5.22;;
45007;SDS011;30743;52.008;5.644;2022-07-24T02:16:46;11.45;;;5.43;;
45007;SDS011;30743;52.008;5.644;2022-07-24T02:19:12;9.00;;;5.07;;
45007;SDS011;30743;52.008;5.644;2022-07-24T02:21:38;8.18;;;4.93;;
45007;SDS011;30743;52.008;5.644;2022-07-24T02:24:03;8.52;;;5.45;;
45007;SDS011;30743;52.008;5.644;2022-07-24T02:26:29;7.70;;;5.40;;
45007;SDS011;30743;52.008;5.644;2022-07-24T02:28:55;8.93;;;5.72;;
45007;SDS011;30743;52.008;5.644;2022-07-24T02:31:20;8.55;;;6.35;;
45007;SDS011;30743;52.008;5.644;2022-07-24T02:33:46;9.57;;;6.55;;
45007;SDS011;30743;52.008;5.644;2022-07-24T02:36:12;10.38;;;6.75;;
45007;SDS011;30743;52.008;5.644;2022-07-24T02:38:38;8.55;;;6.18;;
45007;SDS011;30743;52.008;5.644;2022-07-24T02:41:04;12.10;;;6.40;;
45007;SDS011;30743;52.008;5.644;2022-07-24T02:43:29;13.10;;;7.18;;
45007;SDS011;30743;52.008;5.644;2022-07-24T02:45:55;9.50;;;6.75;;
45007;SDS011;30743;52.008;5.644;2022-07-24T02:48:20;10.90;;;7.55;;
45007;SDS011;30743;52.008;5.644;2022-07-24T02:50:46;9.45;;;7.60;;
45007;SDS011;30743;52.008;5.644;2022-07-24T02:53:11;10.18;;;7.75;;
45007;SDS011;30743;52.008;5.644;2022-07-24T02:55:37;13.85;;;8.43;;
45007;SDS011;30743;52.008;5.644;2022-07-24T02:58:03;11.02;;;8.13;;
45007;SDS011;30743;52.008;5.644;2022-07-24T03:00:28;13.20;;;8.93;;
45007;SDS011;30743;52.008;5.644;2022-07-24T03:02:54;11.68;;;8.40;;
45007;SDS011;30743;52.008;5.644;2022-07-24T03:05:20;13.40;;;7.22;;
45007;SDS011;30743;52.008;5.644;2022-07-24T03:07:45;11.73;;;7.65;;
45007;SDS011;30743;52.008;5.644;2022-07-24T03:10:12;10.70;;;8.25;;
45007;SDS011;30743;52.008;5.644;2022-07-24T03:12:38;10.52;;;8.70;;
45007;SDS011;30743;52.008;5.644;2022-07-24T03:15:03;9.85;;;7.72;;
45007;SDS011;30743;52.008;5.644;2022-07-24T03:17:30;11.15;;;7.55;;
45007;SDS011;30743;52.008;5.644;2022-07-24T03:19:55;10.65;;;7.20;;
45007;SDS011;30743;52.008;5.644;2022-07-24T03:22:20;8.95;;;7.53;;
45007;SDS011;30743;52.008;5.644;2022-07-24T03:24:46;11.68;;;8.55;;
45007;SDS011;30743;52.008;5.644;2022-07-24T03:27:12;16.25;;;8.10;;
45007;SDS011;30743;52.008;5.644;2022-07-24T03:29:37;11.32;;;8.35;;
45007;SDS011;30743;52.008;5.644;2022-07-24T03:32:03;16.15;;;9.40;;
45007;SDS011;30743;52.008;5.644;2022-07-24T03:34:29;16.98;;;9.60;;
45007;SDS011;30743;52.008;5.644;2022-07-24T03:36:54;12.85;;;9.65;;
45007;SDS011;30743;52.008;5.644;2022-07-24T03:39:20;13.60;;;9.43;;
45007;SDS011;30743;52.008;5.644;2022-07-24T03:41:45;11.40;;;8.45;;
45007;SDS011;30743;52.008;5.644;2022-07-24T03:44:11;12.45;;;8.13;;
45007;SDS011;30743;52.008;5.644;2022-07-24T03:46:36;10.88;;;8.48;;
45007;SDS011;30743;52.008;5.644;2022-07-24T03:49:02;14.98;;;8.80;;
45007;SDS011;30743;52.008;5.644;2022-07-24T03:51:27;10.48;;;8.00;;
45007;SDS011;30743;52.008;5.644;2022-07-24T03:53:53;11.30;;;7.78;;
45007;SDS011;30743;52.008;5.644;2022-07-24T03:56:19;9.68;;;7.38;;
45007;SDS011;30743;52.008;5.644;2022-07-24T03:58:44;10.60;;;8.63;;
45007;SDS011;30743;52.008;5.644;2022-07-24T04:01:10;12.93;;;8.63;;
45007;SDS011;30743;52.008;5.644;2022-07-24T04:03:35;12.02;;;8.88;;
45007;SDS011;30743;52.008;5.644;2022-07-24T04:06:02;13.50;;;9.43;;
45007;SDS011;30743;52.008;5.644;2022-07-24T04:08:28;15.50;;;9.43;;
45007;SDS011;30743;52.008;5.644;2022-07-24T04:10:54;15.40;;;9.18;;
45007;SDS011;30743;52.008;5.644;2022-07-24T04:13:25;12.73;;;9.20;;
45007;SDS011;30743;52.008;5.644;2022-07-24T04:15:53;10.82;;;8.68;;
45007;SDS011;30743;52.008;5.644;2022-07-24T04:18:20;15.43;;;8.48;;
45007;SDS011;30743;52.008;5.644;2022-07-24T04:20:46;12.23;;;8.90;;
45007;SDS011;30743;52.008;5.644;2022-07-24T04:23:11;11.50;;;8.57;;
45007;SDS011;30743;52.008;5.644;2022-07-24T04:25:37;11.43;;;9.15;;
45007;SDS011;30743;52.008;5.644;2022-07-24T04:28:03;13.25;;;9.25;;
45007;SDS011;30743;52.008;5.644;2022-07-24T04:30:29;15.20;;;8.82;;
45007;SDS011;30743;52.008;5.644;2022-07-24T04:32:55;10.75;;;8.43;;
45007;SDS011;30743;52.008;5.644;2022-07-24T04:35:21;11.98;;;9.55;;
45007;SDS011;30743;52.008;5.644;2022-07-24T04:37:47;11.77;;;9.05;;
45007;SDS011;30743;52.008;5.644;2022-07-24T04:40:13;11.90;;;9.20;;
45007;SDS011;30743;52.008;5.644;2022-07-24T04:42:39;14.20;;;9.27;;
45007;SDS011;30743;52.008;5.644;2022-07-24T04:45:05;12.68;;;8.77;;
45007;SDS011;30743;52.008;5.644;2022-07-24T04:47:33;15.13;;;9.10;;
45007;SDS011;30743;52.008;5.644;2022-07-24T04:49:58;15.98;;;9.43;;
45007;SDS011;30743;52.008;5.644;2022-07-24T04:52:24;12.48;;;9.52;;
45007;SDS011;30743;52.008;5.644;2022-07-24T04:54:49;15.48;;;9.77;;
45007;SDS011;30743;52.008;5.644;2022-07-24T04:57:15;16.42;;;11.57;;
45007;SDS011;30743;52.008;5.644;2022-07-24T04:59:40;16.00;;;10.88;;
45007;SDS011;30743;52.008;5.644;2022-07-24T05:02:07;19.80;;;11.10;;
45007;SDS011;30743;52.008;5.644;2022-07-24T05:04:32;16.40;;;10.50;;
45007;SDS011;30743;52.008;5.644;2022-07-24T05:06:59;18.80;;;10.50;;
45007;SDS011;30743;52.008;5.644;2022-07-24T05:09:25;18.70;;;9.82;;
45007;SDS011;30743;52.008;5.644;2022-07-24T05:11:51;17.38;;;11.32;;
45007;SDS011;30743;52.008;5.644;2022-07-24T05:14:16;16.80;;;11.13;;
45007;SDS011;30743;52.008;5.644;2022-07-24T05:16:42;15.80;;;11.57;;
45007;SDS011;30743;52.008;5.644;2022-07-24T05:19:07;16.15;;;11.25;;
45007;SDS011;30743;52.008;5.644;2022-07-24T05:21:33;17.85;;;11.95;;
45007;SDS011;30743;52.008;5.644;2022-07-24T05:23:58;15.05;;;11.80;;
45007;SDS011;30743;52.008;5.644;2022-07-24T05:26:27;16.80;;;11.32;;
45007;SDS011;30743;52.008;5.644;2022-07-24T05:28:53;17.25;;;12.15;;
45007;SDS011;30743;52.008;5.644;2022-07-24T05:31:19;16.83;;;12.20;;
45007;SDS011;30743;52.008;5.644;2022-07-24T05:33:44;17.20;;;11.82;;
45007;SDS011;30743;52.008;5.644;2022-07-24T05:36:10;15.32;;;12.20;;
45007;SDS011;30743;52.008;5.644;2022-07-24T05:38:35;15.77;;;11.65;;
45007;SDS011;30743;52.008;5.644;2022-07-24T05:41:01;18.35;;;12.38;;
45007;SDS011;30743;52.008;5.644;2022-07-24T05:43:27;17.77;;;12.82;;
45007;SDS011;30743;52.008;5.644;2022-07-24T05:45:52;18.88;;;12.50;;
45007;SDS011;30743;52.008;5.644;2022-07-24T05:48:18;23.33;;;13.93;;
45007;SDS011;30743;52.008;5.644;2022-07-24T05:50:43;22.00;;;13.77;;
45007;SDS011;30743;52.008;5.644;2022-07-24T05:53:09;19.98;;;13.15;;
45007;SDS011;30743;52.008;5.644;2022-07-24T05:55:34;15.95;;;13.13;;
45007;SDS011;30743;52.008;5.644;2022-07-24T05:58:00;21.25;;;13.90;;
45007;SDS011;30743;52.008;5.644;2022-07-24T06:00:25;17.35;;;13.18;;
45007;SDS011;30743;52.008;5.644;2022-07-24T06:02:51;16.95;;;13.07;;
45007;SDS011;30743;52.008;5.644;2022-07-24T06:05:16;20.38;;;13.40;;
45007;SDS011;30743;52.008;5.644;2022-07-24T06:07:42;19.30;;;14.32;;
45007;SDS011;30743;52.008;5.644;2022-07-24T06:10:08;17.20;;;13.00;;
45007;SDS011;30743;52.008;5.644;2022-07-24T06:12:34;18.85;;;12.77;;
45007;SDS011;30743;52.008;5.644;2022-07-24T06:15:00;18.48;;;14.15;;
45007;SDS011;30743;52.008;5.644;2022-07-24T06:17:25;18.10;;;12.90;;
45007;SDS011;30743;52.008;5.644;2022-07-24T06:19:51;17.90;;;11.95;;
45007;SDS011;30743;52.008;5.644;2022-07-24T06:22:16;18.92;;;12.10;;
45007;SDS011;30743;52.008;5.644;2022-07-24T06:24:42;18.23;;;11.30;;
45007;SDS011;30743;52.008;5.644;2022-07-24T06:27:07;17.13;;;12.30;;
45007;SDS011;30743;52.008;5.644;2022-07-24T06:29:33;17.23;;;10.85;;
45007;SDS011;30743;52.008;5.644;2022-07-24T06:31:58;18.95;;;11.52;;
45007;SDS011;30743;52.008;5.644;2022-07-24T06:34:24;12.95;;;9.68;;
45007;SDS011;30743;52.008;5.644;2022-07-24T06:36:50;16.30;;;10.57;;
45007;SDS011;30743;52.008;5.644;2022-07-24T06:39:16;12.68;;;9.52;;
45007;SDS011;30743;52.008;5.644;2022-07-24T06:41:42;11.50;;;8.50;;
45007;SDS011;30743;52.008;5.644;2022-07-24T06:44:08;12.77;;;9.05;;
45007;SDS011;30743;52.008;5.644;2022-07-24T06:46:33;12.88;;;8.88;;
45007;SDS011;30743;52.008;5.644;2022-07-24T06:48:59;13.02;;;9.30;;
45007;SDS011;30743;52.008;5.644;2022-07-24T06:51:24;10.27;;;8.25;;
45007;SDS011;30743;52.008;5.644;2022-07-24T06:53:50;10.88;;;7.78;;
45007;SDS011;30743;52.008;5.644;2022-07-24T06:56:16;12.00;;;7.68;;
45007;SDS011;30743;52.008;5.644;2022-07-24T06:58:41;12.18;;;7.22;;
45007;SDS011;30743;52.008;5.644;2022-07-24T07:01:07;14.05;;;7.28;;
45007;SDS011;30743;52.008;5.644;2022-07-24T07:03:32;12.82;;;8.25;;
45007;SDS011;30743;52.008;5.644;2022-07-24T07:05:58;9.15;;;6.88;;
45007;SDS011;30743;52.008;5.644;2022-07-24T07:08:23;8.20;;;5.93;;
45007;SDS011;30743;52.008;5.644;2022-07-24T07:10:49;8.52;;;6.40;;
45007;SDS011;30743;52.008;5.644;2022-07-24T07:13:14;8.43;;;6.20;;
45007;SDS011;30743;52.008;5.644;2022-07-24T07:15:40;9.18;;;5.72;;
45007;SDS011;30743;52.008;5.644;2022-07-24T07:18:05;10.23;;;5.85;;
45007;SDS011;30743;52.008;5.644;2022-07-24T07:20:31;12.57;;;6.82;;
45007;SDS011;30743;52.008;5.644;2022-07-24T07:22:57;7.85;;;6.25;;
45007;SDS011;30743;52.008;5.644;2022-07-24T07:25:22;9.43;;;6.57;;
45007;SDS011;30743;52.008;5.644;2022-07-24T07:27:48;9.07;;;7.00;;
45007;SDS011;30743;52.008;5.644;2022-07-24T07:30:14;9.80;;;6.03;;
45007;SDS011;30743;52.008;5.644;2022-07-24T07:32:40;7.15;;;6.25;;
45007;SDS011;30743;52.008;5.644;2022-07-24T07:35:06;9.35;;;5.45;;
45007;SDS011;30743;52.008;5.644;2022-07-24T07:37:32;9.50;;;6.43;;
45007;SDS011;30743;52.008;5.644;2022-07-24T07:39:58;8.45;;;6.00;;
45007;SDS011;30743;52.008;5.644;2022-07-24T07:42:24;6.68;;;5.53;;
45007;SDS011;30743;52.008;5.644;2022-07-24T07:44:49;6.47;;;4.30;;
45007;SDS011;30743;52.008;5.644;2022-07-24T07:47:15;6.22;;;3.20;;
45007;SDS011;30743;52.008;5.644;2022-07-24T07:49:40;7.78;;;2.80;;
45007;SDS011;30743;52.008;5.644;2022-07-24T07:52:06;4.05;;;2.90;;
45007;SDS011;30743;52.008;5.644;2022-07-24T07:54:32;3.15;;;2.80;;
45007;SDS011;30743;52.008;5.644;2022-07-24T07:56:57;4.70;;;2.97;;
45007;SDS011;30743;52.008;5.644;2022-07-24T07:59:23;4.50;;;3.13;;
45007;SDS011;30743;52.008;5.644;2022-07-24T08:01:48;4.53;;;3.03;;
45007;SDS011;30743;52.008;5.644;2022-07-24T08:04:14;5.72;;;2.90;;
45007;SDS011;30743;52.008;5.644;2022-07-24T08:06:40;4.03;;;3.17;;
45007;SDS011;30743;52.008;5.644;2022-07-24T08:09:05;5.28;;;2.95;;
45007;SDS011;30743;52.008;5.644;2022-07-24T08:11:32;7.25;;;3.20;;
45007;SDS011;30743;52.008;5.644;2022-07-24T08:13:58;3.50;;;2.90;;
45007;SDS011;30743;52.008;5.644;2022-07-24T08:16:23;4.30;;;3.33;;
45007;SDS011;30743;52.008;5.644;2022-07-24T08:18:49;4.22;;;2.80;;
45007;SDS011;30743;52.008;5.644;2022-07-24T08:21:15;5.78;;;3.22;;
45007;SDS011;30743;52.008;5.644;2022-07-24T08:23:43;6.22;;;3.30;;
45007;SDS011;30743;52.008;5.644;2022-07-24T08:26:11;4.32;;;2.80;;
45007;SDS011;30743;52.008;5.644;2022-07-24T08:28:38;3.25;;;2.95;;
45007;SDS011;30743;52.008;5.644;2022-07-24T08:31:03;5.47;;;3.20;;
45007;SDS011;30743;52.008;5.644;2022-07-24T08:33:29;3.42;;;2.65;;
45007;SDS011;30743;52.008;5.644;2022-07-24T08:35:54;3.90;;;3.00;;
45007;SDS011;30743;52.008;5.644;2022-07-24T08:38:20;5.45;;;3.40;;
45007;SDS011;30743;52.008;5.644;2022-07-24T08:40:45;6.53;;;2.97;;
45007;SDS011;30743;52.008;5.644;2022-07-24T08:43:11;4.80;;;3.28;;
45007;SDS011;30743;52.008;5.644;2022-07-24T08:45:38;4.20;;;3.33;;
45007;SDS011;30743;52.008;5.644;2022-07-24T08:48:06;7.13;;;2.47;;
45007;SDS011;30743;52.008;5.644;2022-07-24T08:50:34;5.13;;;3.70;;
45007;SDS011;30743;52.008;5.644;2022-07-24T08:53:02;4.53;;;3.03;;
45007;SDS011;30743;52.008;5.644;2022-07-24T08:55:29;6.82;;;2.90;;
45007;SDS011;30743;52.008;5.644;2022-07-24T08:57:56;5.20;;;3.10;;
45007;SDS011;30743;52.008;5.644;2022-07-24T09:00:22;5.72;;;2.88;;
45007;SDS011;30743;52.008;5.644;2022-07-24T09:02:48;4.95;;;2.80;;
45007;SDS011;30743;52.008;5.644;2022-07-24T09:05:14;4.78;;;3.03;;
45007;SDS011;30743;52.008;5.644;2022-07-24T09:07:40;5.82;;;3.63;;
45007;SDS011;30743;52.008;5.644;2022-07-24T09:10:07;4.93;;;3.10;;
45007;SDS011;30743;52.008;5.644;2022-07-24T09:12:35;3.78;;;2.38;;
45007;SDS011;30743;52.008;5.644;2022-07-24T09:15:14;6.32;;;3.30;;
45007;SDS011;30743;52.008;5.644;2022-07-24T09:17:48;4.22;;;2.90;;
45007;SDS011;30743;52.008;5.644;2022-07-24T09:20:16;4.88;;;2.80;;
45007;SDS011;30743;52.008;5.644;2022-07-24T09:22:42;3.08;;;2.60;;
45007;SDS011;30743;52.008;5.644;2022-07-24T09:25:18;3.85;;;3.03;;
45007;SDS011;30743;52.008;5.644;2022-07-24T09:33:01;3.10;;;2.75;;
45007;SDS011;30743;52.008;5.644;2022-07-24T09:35:32;5.10;;;2.60;;
45007;SDS011;30743;52.008;5.644;2022-07-24T09:38:06;4.75;;;2.80;;
45007;SDS011;30743;52.008;5.644;2022-07-24T09:40:37;3.28;;;2.50;;
45007;SDS011;30743;52.008;5.644;2022-07-24T09:43:11;3.65;;;2.65;;
45007;SDS011;30743;52.008;5.644;2022-07-24T09:48:34;4.97;;;2.85;;
45007;SDS011;30743;52.008;5.644;2022-07-24T09:51:08;4.47;;;2.90;;
45007;SDS011;30743;52.008;5.644;2022-07-24T09:53:36;3.92;;;2.78;;
45007;SDS011;30743;52.008;5.644;2022-07-24T09:56:03;3.78;;;2.50;;
45007;SDS011;30743;52.008;5.644;2022-07-24T09:58:37;4.30;;;2.80;;
45007;SDS011;30743;52.008;5.644;2022-07-24T10:01:05;4.35;;;2.60;;
45007;SDS011;30743;52.008;5.644;2022-07-24T10:03:33;3.67;;;2.55;;
45007;SDS011;30743;52.008;5.644;2022-07-24T10:06:02;4.55;;;2.75;;
45007;SDS011;30743;52.008;5.644;2022-07-24T10:08:29;3.20;;;2.28;;
45007;SDS011;30743;52.008;5.644;2022-07-24T10:10:55;3.90;;;2.70;;
45007;SDS011;30743;52.008;5.644;2022-07-24T10:13:22;3.95;;;2.38;;
45007;SDS011;30743;52.008;5.644;2022-07-24T10:15:54;5.53;;;2.67;;
45007;SDS011;30743;52.008;5.644;2022-07-24T10:19:19;3.00;;;2.42;;
45007;SDS011;30743;52.008;5.644;2022-07-24T10:21:22;4.28;;;2.17;;
45007;SDS011;30743;52.008;5.644;2022-07-24T10:26:37;5.22;;;2.53;;
45007;SDS011;30743;52.008;5.644;2022-07-24T10:29:20;3.30;;;2.38;;
45007;SDS011;30743;52.008;5.644;2022-07-24T10:31:48;3.50;;;2.47;;
45007;SDS011;30743;52.008;5.644;2022-07-24T10:34:33;2.80;;;2.22;;
45007;SDS011;30743;52.008;5.644;2022-07-24T10:42:33;7.25;;;2.20;;
45007;SDS011;30743;52.008;5.644;2022-07-24T10:45:33;4.35;;;2.20;;
45007;SDS011;30743;52.008;5.644;2022-07-24T10:56:15;2.85;;;2.10;;
45007;SDS011;30743;52.008;5.644;2022-07-24T11:01:27;4.18;;;1.92;;
45007;SDS011;30743;52.008;5.644;2022-07-24T11:03:52;3.67;;;1.85;;
45007;SDS011;30743;52.008;5.644;2022-07-24T11:06:18;2.53;;;1.70;;
45007;SDS011;30743;52.008;5.644;2022-07-24T11:08:49;5.50;;;1.95;;
45007;SDS011;30743;52.008;5.644;2022-07-24T11:11:17;3.42;;;2.00;;
45007;SDS011;30743;52.008;5.644;2022-07-24T11:13:54;2.60;;;1.85;;
45007;SDS011;30743;52.008;5.644;2022-07-24T11:16:26;3.63;;;2.10;;
45007;SDS011;30743;52.008;5.644;2022-07-24T11:21:29;2.55;;;1.75;;
45007;SDS011;30743;52.008;5.644;2022-07-24T11:34:34;5.80;;;2.10;;
45007;SDS011;30743;52.008;5.644;2022-07-24T11:37:00;4.47;;;1.73;;
45007;SDS011;30743;52.008;5.644;2022-07-24T11:39:37;3.72;;;1.70;;
45007;SDS011;30743;52.008;5.644;2022-07-24T11:42:08;2.42;;;1.67;;
45007;SDS011;30743;52.008;5.644;2022-07-24T11:44:39;2.50;;;2.00;;
45007;SDS011;30743;52.008;5.644;2022-07-24T11:49:42;3.05;;;2.00;;
45007;SDS011;30743;52.008;5.644;2022-07-24T11:52:37;2.05;;;1.70;;
45007;SDS011;30743;52.008;5.644;2022-07-24T11:57:36;5.15;;;1.80;;
45007;SDS011;30743;52.008;5.644;2022-07-24T12:00:04;6.75;;;2.20;;
45007;SDS011;30743;52.008;5.644;2022-07-24T12:02:36;2.30;;;1.60;;
45007;SDS011;30743;52.008;5.644;2022-07-24T12:05:02;3.63;;;2.00;;
45007;SDS011;30743;52.008;5.644;2022-07-24T12:07:28;3.63;;;1.95;;
45007;SDS011;30743;52.008;5.644;2022-07-24T12:09:58;3.22;;;2.10;;
45007;SDS011;30743;52.008;5.644;2022-07-24T12:12:32;2.20;;;1.63;;
45007;SDS011;30743;52.008;5.644;2022-07-24T12:15:06;2.55;;;1.88;;
45007;SDS011;30743;52.008;5.644;2022-07-24T12:17:53;2.33;;;1.85;;
45007;SDS011;30743;52.008;5.644;2022-07-24T12:20:20;4.75;;;2.00;;
45007;SDS011;30743;52.008;5.644;2022-07-24T12:22:51;3.55;;;1.70;;
45007;SDS011;30743;52.008;5.644;2022-07-24T12:25:17;1.98;;;1.77;;
45007;SDS011;30743;52.008;5.644;2022-07-24T12:27:44;2.58;;;1.83;;
45007;SDS011;30743;52.008;5.644;2022-07-24T12:30:26;3.45;;;2.10;;
45007;SDS011;30743;52.008;5.644;2022-07-24T12:32:54;2.75;;;1.58;;
45007;SDS011;30743;52.008;5.644;2022-07-24T12:35:21;3.10;;;2.10;;
45007;SDS011;30743;52.008;5.644;2022-07-24T12:37:47;2.63;;;1.65;;
45007;SDS011;30743;52.008;5.644;2022-07-24T12:40:22;3.95;;;1.55;;
45007;SDS011;30743;52.008;5.644;2022-07-24T12:42:56;2.70;;;1.88;;
45007;SDS011;30743;52.008;5.644;2022-07-24T12:45:26;2.30;;;1.73;;
45007;SDS011;30743;52.008;5.644;2022-07-24T12:48:08;2.60;;;1.70;;
45007;SDS011;30743;52.008;5.644;2022-07-24T12:50:57;3.13;;;1.80;;
45007;SDS011;30743;52.008;5.644;2022-07-24T12:53:23;2.45;;;1.60;;
45007;SDS011;30743;52.008;5.644;2022-07-24T12:58:49;2.20;;;1.60;;
45007;SDS011;30743;52.008;5.644;2022-07-24T13:01:15;3.88;;;1.80;;
45007;SDS011;30743;52.008;5.644;2022-07-24T13:03:41;2.50;;;1.60;;
45007;SDS011;30743;52.008;5.644;2022-07-24T13:06:08;2.83;;;1.60;;
45007;SDS011;30743;52.008;5.644;2022-07-24T13:08:33;1.90;;;1.40;;
45007;SDS011;30743;52.008;5.644;2022-07-24T13:10:59;3.28;;;1.50;;
45007;SDS011;30743;52.008;5.644;2022-07-24T13:13:25;1.83;;;1.50;;
45007;SDS011;30743;52.008;5.644;2022-07-24T13:15:50;2.58;;;1.67;;
45007;SDS011;30743;52.008;5.644;2022-07-24T13:18:16;3.20;;;1.75;;
45007;SDS011;30743;52.008;5.644;2022-07-24T13:20:41;1.70;;;1.50;;
45007;SDS011;30743;52.008;5.644;2022-07-24T13:23:07;3.20;;;1.70;;
45007;SDS011;30743;52.008;5.644;2022-07-24T13:25:32;2.58;;;1.13;;
45007;SDS011;30743;52.008;5.644;2022-07-24T13:27:58;2.33;;;1.35;;
45007;SDS011;30743;52.008;5.644;2022-07-24T13:30:23;2.25;;;1.30;;
45007;SDS011;30743;52.008;5.644;2022-07-24T13:32:49;2.28;;;1.33;;
45007;SDS011;30743;52.008;5.644;2022-07-24T13:35:14;5.07;;;1.52;;
45007;SDS011;30743;52.008;5.644;2022-07-24T13:37:40;1.55;;;1.08;;
45007;SDS011;30743;52.008;5.644;2022-07-24T13:40:06;2.00;;;1.42;;
45007;SDS011;30743;52.008;5.644;2022-07-24T13:42:33;1.98;;;1.42;;
45007;SDS011;30743;52.008;5.644;2022-07-24T13:44:59;1.40;;;1.25;;
45007;SDS011;30743;52.008;5.644;2022-07-24T13:47:24;1.60;;;1.40;;
45007;SDS011;30743;52.008;5.644;2022-07-24T13:49:50;3.65;;;1.40;;
45007;SDS011;30743;52.008;5.644;2022-07-24T13:52:15;1.58;;;1.33;;
45007;SDS011;30743;52.008;5.644;2022-07-24T13:54:41;3.17;;;1.40;;
45007;SDS011;30743;52.008;5.644;2022-07-24T13:57:07;2.40;;;1.20;;
45007;SDS011;30743;52.008;5.644;2022-07-24T13:59:32;3.53;;;1.52;;
45007;SDS011;30743;52.008;5.644;2022-07-24T14:01:58;1.52;;;1.30;;
45007;SDS011;30743;52.008;5.644;2022-07-24T14:04:23;2.88;;;1.42;;
45007;SDS011;30743;52.008;5.644;2022-07-24T14:06:49;2.63;;;1.60;;
45007;SDS011;30743;52.008;5.644;2022-07-24T14:09:15;5.47;;;1.27;;
45007;SDS011;30743;52.008;5.644;2022-07-24T14:11:40;1.55;;;1.00;;
45007;SDS011;30743;52.008;5.644;2022-07-24T14:14:06;3.83;;;1.58;;
45007;SDS011;30743;52.008;5.644;2022-07-24T14:16:32;3.78;;;1.40;;
45007;SDS011;30743;52.008;5.644;2022-07-24T14:18:57;3.50;;;1.65;;
45007;SDS011;30743;52.008;5.644;2022-07-24T14:21:23;1.35;;;1.13;;
45007;SDS011;30743;52.008;5.644;2022-07-24T14:23:49;3.20;;;1.20;;
45007;SDS011;30743;52.008;5.644;2022-07-24T14:26:14;1.58;;;1.20;;
45007;SDS011;30743;52.008;5.644;2022-07-24T14:28:40;1.38;;;1.20;;
45007;SDS011;30743;52.008;5.644;2022-07-24T14:31:06;2.15;;;1.30;;
45007;SDS011;30743;52.008;5.644;2022-07-24T14:33:32;1.20;;;1.10;;
45007;SDS011;30743;52.008;5.644;2022-07-24T14:35:58;1.77;;;1.30;;
45007;SDS011;30743;52.008;5.644;2022-07-24T14:38:24;2.28;;;1.23;;
45007;SDS011;30743;52.008;5.644;2022-07-24T14:40:50;1.63;;;1.30;;
45007;SDS011;30743;52.008;5.644;2022-07-24T14:43:15;1.48;;;1.23;;
45007;SDS011;30743;52.008;5.644;2022-07-24T14:45:41;1.65;;;1.40;;
45007;SDS011;30743;52.008;5.644;2022-07-24T14:48:06;1.30;;;1.15;;
45007;SDS011;30743;52.008;5.644;2022-07-24T14:50:32;2.95;;;1.27;;
45007;SDS011;30743;52.008;5.644;2022-07-24T14:52:57;2.70;;;1.30;;
45007;SDS011;30743;52.008;5.644;2022-07-24T14:55:23;2.90;;;1.27;;
45007;SDS011;30743;52.008;5.644;2022-07-24T14:57:49;1.38;;;1.02;;
45007;SDS011;30743;52.008;5.644;2022-07-24T15:00:14;1.73;;;1.17;;
45007;SDS011;30743;52.008;5.644;2022-07-24T15:02:40;1.60;;;1.25;;
45007;SDS011;30743;52.008;5.644;2022-07-24T15:05:06;1.33;;;1.23;;
45007;SDS011;30743;52.008;5.644;2022-07-24T15:07:31;2.45;;;1.52;;
45007;SDS011;30743;52.008;5.644;2022-07-24T15:09:57;2.13;;;1.45;;
45007;SDS011;30743;52.008;5.644;2022-07-24T15:12:22;1.75;;;1.48;;
45007;SDS011;30743;52.008;5.644;2022-07-24T15:14:48;3.97;;;1.80;;
45007;SDS011;30743;52.008;5.644;2022-07-24T15:17:14;3.20;;;1.50;;
45007;SDS011;30743;52.008;5.644;2022-07-24T15:19:39;1.77;;;1.50;;
45007;SDS011;30743;52.008;5.644;2022-07-24T15:22:05;1.30;;;1.20;;
45007;SDS011;30743;52.008;5.644;2022-07-24T15:24:30;1.90;;;1.30;;
45007;SDS011;30743;52.008;5.644;2022-07-24T15:26:56;1.63;;;1.35;;
45007;SDS011;30743;52.008;5.644;2022-07-24T15:29:21;2.28;;;1.38;;